Time;durP1;ratioP1;P1;durP2;ratioP2;P2;SDS_P1;SDS_P2;PMS_P1;PMS_P2;Temp;Humidity;BMP_temperature;BMP_pressure;BME280_temperature;BME280_humidity;BME280_pressure;Samples;Min_cycle;Max_cycle;Signal;HPM_P1;HPM_P2
2021/09/01 00:00:00;;;;;;;8.20;2.70;;;;;;;19.62;54.49;102729.56;5000899;28;109142;-64
2021/09/01 00:02:27;;;;;;;9.48;2.63;;;;;;;19.62;54.54;102717.97;4979727;28;109047;-64
2021/09/01 00:04:54;;;;;;;10.02;2.63;;;;;;;19.61;54.61;102718.94;4993490;28;124672;-64
2021/09/01 00:07:21;;;;;;;8.57;2.50;;;;;;;19.62;54.57;102721.50;4992808;28;123745;-64
2021/09/01 00:09:49;;;;;;;7.72;2.15;;;;;;;19.64;54.75;102716.91;4995767;28;108913;-64
2021/09/01 00:12:16;;;;;;;10.02;2.85;;;;;;;19.66;54.67;102716.84;4992334;28;109253;-64
2021/09/01 00:14:43;;;;;;;5.72;2.63;;;;;;;19.64;54.75;102719.59;4991681;28;123877;-64
2021/09/01 00:17:10;;;;;;;9.65;2.50;;;;;;;19.64;54.73;102719.59;4995947;28;123257;-64
2021/09/01 00:19:37;;;;;;;9.63;2.30;;;;;;;19.65;54.83;102720.50;4994867;28;108990;-64
2021/09/01 00:22:04;;;;;;;9.50;2.97;;;;;;;19.65;54.73;102721.34;4998873;28;108704;-64
2021/09/01 00:24:31;;;;;;;11.50;3.08;;;;;;;19.69;54.86;102721.22;4995252;28;123851;-65
2021/09/01 00:26:59;;;;;;;9.95;2.67;;;;;;;19.71;55.00;102719.31;4993290;28;123934;-64
2021/09/01 00:29:26;;;;;;;8.23;2.05;;;;;;;19.73;54.89;102717.44;4978223;28;109618;-64
2021/09/01 00:31:53;;;;;;;7.53;2.20;;;;;;;19.74;54.91;102713.78;4998032;28;109831;-64
2021/09/01 00:34:20;;;;;;;9.88;2.47;;;;;;;19.74;54.78;102720.03;4997880;28;123937;-64
2021/09/01 00:36:47;;;;;;;6.82;2.25;;;;;;;19.75;54.85;102721.75;4998094;28;123945;-65
2021/09/01 00:39:14;;;;;;;10.35;2.58;;;;;;;19.76;54.83;102719.94;4996817;28;108916;-64
2021/09/01 00:41:41;;;;;;;10.52;2.25;;;;;;;19.76;54.97;102712.75;4979438;28;109010;-64
2021/09/01 00:44:22;;;;;;;11.00;2.45;;;;;;;19.76;54.86;102723.50;4995218;28;124855;-64
2021/09/01 00:47:07;;;;;;;6.88;2.70;;;;;;;19.76;54.85;102722.63;4981992;28;126318;-64
2021/09/01 00:49:35;;;;;;;9.55;3.03;;;;;;;19.78;54.96;102720.75;4978934;28;107999;-64
2021/09/01 00:52:02;;;;;;;8.75;2.40;;;;;;;19.77;55.00;102717.16;4992575;28;108934;-64
2021/09/01 00:54:31;;;;;;;8.07;2.70;;;;;;;19.77;54.90;102713.63;4994294;28;123880;-64
2021/09/01 00:57:04;;;;;;;12.07;2.58;;;;;;;19.77;54.93;102719.00;4993664;28;123872;-65
2021/09/01 00:59:34;;;;;;;9.45;3.00;;;;;;;19.76;54.99;102711.88;4994492;28;108972;-64
2021/09/01 01:02:02;;;;;;;11.23;2.78;;;;;;;19.77;54.80;102708.25;4979602;28;107834;-64
2021/09/01 01:04:30;;;;;;;8.18;2.72;;;;;;;19.74;54.67;102709.28;4977507;28;124373;-65
2021/09/01 01:07:05;;;;;;;6.47;2.60;;;;;;;19.71;54.70;102711.25;4994125;28;123779;-65
2021/09/01 01:09:34;;;;;;;11.27;2.60;;;;;;;19.69;54.75;102715.81;4994447;28;109336;-64
2021/09/01 01:12:08;;;;;;;7.80;2.58;;;;;;;19.67;54.56;102712.34;4992741;28;109296;-64
2021/09/01 01:14:40;;;;;;;7.43;2.58;;;;;;;19.63;54.43;102711.66;4995462;28;124708;-64
2021/09/01 01:17:09;;;;;;;7.10;2.38;;;;;;;19.60;54.36;102711.81;4979852;28;123104;-64
2021/09/01 01:19:51;;;;;;;7.07;2.30;;;;;;;19.58;54.42;102709.19;5000257;28;110054;-64
2021/09/01 01:22:26;;;;;;;6.18;2.20;;;;;;;19.59;54.48;102721.69;4999216;28;109812;-65
2021/09/01 01:24:53;;;;;;;;;;;;;;;19.57;54.47;102718.22;5002426;28;124321;-65
2021/09/01 01:27:31;;;;;;;10.85;2.53;;;;;;;19.60;54.50;102723.41;5004180;28;123874;-64
2021/09/01 01:30:10;;;;;;;7.53;2.25;;;;;;;19.61;54.35;102724.31;4998980;28;109061;-64
2021/09/01 01:32:39;;;;;;;9.63;2.38;;;;;;;19.60;54.25;102718.03;5001277;28;109219;-64
2021/09/01 01:35:08;;;;;;;9.52;2.65;;;;;;;19.59;54.52;102716.31;5002198;28;124594;-64
2021/09/01 01:37:39;;;;;;;7.95;2.65;;;;;;;19.59;54.57;102716.31;4998063;28;124409;-64
2021/09/01 01:40:07;;;;;;;8.98;2.60;;;;;;;19.61;54.37;102725.16;4995575;28;109731;-64
2021/09/01 01:42:41;;;;;;;6.45;2.38;;;;;;;19.62;54.30;102720.66;5000159;28;108982;-65
2021/09/01 01:45:10;;;;;;;8.63;2.60;;;;;;;19.62;54.40;102721.50;4982744;28;124090;-64
2021/09/01 01:47:38;;;;;;;6.85;2.70;;;;;;;19.62;54.30;102720.66;4995434;28;124552;-65
2021/09/01 01:50:05;;;;;;;8.60;2.60;;;;;;;19.60;54.25;102722.56;4994969;28;109378;-64
2021/09/01 01:52:33;;;;;;;7.75;2.45;;;;;;;19.58;54.46;102719.94;4990227;28;108820;-64
2021/09/01 01:55:01;;;;;;;8.73;2.65;;;;;;;19.56;54.53;102724.53;5011937;22;123984;31
2021/09/01 01:57:29;;;;;;;9.25;3.00;;;;;;;19.57;54.42;102720.91;4985677;28;123660;-66
2021/09/01 01:59:56;;;;;;;10.90;2.47;;;;;;;19.56;54.38;102721.84;4982877;28;109166;-67
2021/09/01 02:02:29;;;;;;;11.57;2.60;;;;;;;19.56;54.48;102721.84;4984446;28;108927;-67
2021/09/01 02:04:57;;;;;;;10.80;2.60;;;;;;;19.53;54.35;102732.75;4998833;28;122991;-67
2021/09/01 02:07:26;;;;;;;8.93;2.42;;;;;;;19.51;54.27;102729.28;4981464;28;123832;-66
2021/09/01 02:09:54;;;;;;;7.68;2.60;;;;;;;19.51;54.28;102734.66;4979049;28;109947;-66
2021/09/01 02:12:21;;;;;;;6.72;2.35;;;;;;;19.49;54.26;102725.81;4979223;28;110363;-66
2021/09/01 02:14:48;;;;;;;8.63;2.55;;;;;;;19.48;54.17;102734.84;4976604;28;123933;-66
2021/09/01 02:17:15;;;;;;;9.57;2.58;;;;;;;19.47;54.00;102733.09;4983364;28;123043;-66
2021/09/01 02:19:42;;;;;;;8.75;2.53;;;;;;;19.46;54.01;102736.75;4976789;28;109170;-66
2021/09/01 02:22:09;;;;;;;9.85;2.45;;;;;;;19.47;53.98;102735.78;4982273;28;109258;-66
2021/09/01 02:24:36;;;;;;;10.57;2.88;;;;;;;19.47;54.05;102732.22;4979445;28;124065;-66
2021/09/01 02:27:04;;;;;;;8.60;2.90;;;;;;;19.45;54.13;102734.97;4982617;28;124513;-66
2021/09/01 02:29:31;;;;;;;7.95;2.35;;;;;;;19.47;54.17;102733.09;4986100;28;110862;-66
2021/09/01 02:31:58;;;;;;;6.65;2.40;;;;;;;19.47;53.78;102722.34;4988818;28;108863;-66
2021/09/01 02:34:25;;;;;;;8.15;2.60;;;;;;;19.47;53.90;102722.34;4979906;28;124167;-66
2021/09/01 02:36:52;;;;;;;9.73;2.80;;;;;;;19.45;53.81;102719.72;4980607;28;124779;-63
2021/09/01 02:39:19;;;;;;;8.38;2.47;;;;;;;19.47;54.06;102716.94;4982217;28;108992;-63
2021/09/01 02:41:46;;;;;;;10.50;2.50;;;;;;;19.50;53.96;102718.63;4985704;28;109295;-63
2021/09/01 02:44:14;;;;;;;7.38;2.35;;;;;;;19.51;53.97;102717.66;4990067;28;123829;-65
2021/09/01 02:46:41;;;;;;;8.20;2.50;;;;;;;19.52;54.09;102714.03;4990910;28;123911;-65
2021/09/01 02:49:08;;;;;;;7.07;2.45;;;;;;;19.53;53.89;102713.94;4982660;28;109933;-65
2021/09/01 02:51:35;;;;;;;11.43;2.70;;;;;;;19.56;54.18;102721.84;4982429;28;108981;-65
2021/09/01 02:54:02;;;;;;;8.55;2.83;;;;;;;19.57;53.91;102718.22;4983157;28;124918;-66
2021/09/01 02:56:30;;;;;;;7.70;2.85;;;;;;;19.61;53.87;102711.72;4982558;28;123784;-65
2021/09/01 02:58:57;;;;;;;8.13;2.30;;;;;;;19.63;54.02;102712.50;4977563;28;110195;-65
2021/09/01 03:01:25;;;;;;;6.30;2.10;;;;;;;19.65;54.11;102715.97;4977614;28;110150;-65
2021/09/01 03:03:52;;;;;;;7.78;2.45;;;;;;;19.67;54.21;102707.84;4974771;28;124150;-65
2021/09/01 03:06:19;;;;;;;7.03;2.63;;;;;;;19.69;54.13;102715.81;4978890;28;123805;-65
2021/09/01 03:08:46;;;;;;;8.07;2.75;;;;;;;19.69;54.33;102715.81;4977425;28;108982;-65
2021/09/01 03:11:14;;;;;;;6.43;2.58;;;;;;;19.70;54.23;102712.16;4978312;28;109059;-65
2021/09/01 03:13:42;;;;;;;8.02;2.88;;;;;;;19.70;54.42;102712.16;4984545;28;122855;-65
2021/09/01 03:16:09;;;;;;;9.45;2.67;;;;;;;19.70;54.54;102725.63;4985778;28;123928;-65
2021/09/01 03:18:36;;;;;;;7.78;2.70;;;;;;;19.71;54.42;102722.00;4980814;28;109077;-64
2021/09/01 03:21:04;;;;;;;12.98;3.30;;;;;;;19.70;54.34;102715.72;4980168;28;109155;-63
2021/09/01 03:23:31;;;;;;;9.65;2.55;;;;;;;19.72;54.47;102716.56;4980879;28;124126;-63
2021/09/01 03:25:58;;;;;;;6.53;2.28;;;;;;;19.73;54.56;102717.44;4977696;28;123855;-63
2021/09/01 03:28:25;;;;;;;7.20;2.85;;;;;;;19.71;54.42;102713.94;4979286;28;109165;-63
2021/09/01 03:30:52;;;;;;;11.57;3.40;;;;;;;19.70;54.50;102717.56;4979565;28;107674;-63
2021/09/01 03:33:19;;;;;;;9.77;2.92;;;;;;;19.70;54.54;102717.56;4983206;28;125041;-63
2021/09/01 03:35:46;;;;;;;7.32;2.53;;;;;;;19.69;54.46;102721.22;4975463;28;124536;-63
2021/09/01 03:38:15;;;;;;;6.35;2.90;;;;;;;19.68;54.36;102719.44;4971623;28;109008;-63
2021/09/01 03:40:42;;;;;;;7.82;2.47;;;;;;;19.64;54.40;102716.91;4977805;28;108108;-63
2021/09/01 03:43:09;;;;;;;6.00;2.28;;;;;;;19.63;54.52;102711.66;4979657;28;124140;-63
2021/09/01 03:45:37;;;;;;;6.88;2.55;;;;;;;19.60;54.47;102712.66;4980821;28;124025;-63
2021/09/01 03:48:05;;;;;;;7.55;2.60;;;;;;;19.58;54.28;102714.56;4979998;28;110232;-63
2021/09/01 03:50:32;;;;;;;7.88;3.17;;;;;;;19.55;54.47;102725.50;4975003;28;108901;-63
2021/09/01 03:52:59;;;;;;;7.72;2.22;;;;;;;19.56;54.55;102726.38;4985662;28;126343;-63
2021/09/01 03:55:27;;;;;;;9.60;2.70;;;;;;;19.55;54.66;102728.19;4983592;28;124671;-63
2021/09/01 03:57:54;;;;;;;9.13;2.58;;;;;;;19.56;54.45;102727.22;4982579;28;109752;-63
2021/09/01 04:00:21;;;;;;;11.27;2.80;;;;;;;19.56;54.48;102721.84;4979155;28;109008;-63
2021/09/01 04:02:49;;;;;;;8.30;2.60;;;;;;;19.56;54.78;102731.75;4977838;28;124131;-64
2021/09/01 04:05:16;;;;;;;8.60;2.70;;;;;;;19.57;54.36;102734.34;4983038;28;123838;-63
2021/09/01 04:07:43;;;;;;;6.88;2.67;;;;;;;19.56;54.59;102727.22;4976187;28;109335;-64
2021/09/01 04:10:10;;;;;;;6.95;2.88;;;;;;;19.57;54.56;102723.59;4976720;28;109630;-64
2021/09/01 04:12:37;;;;;;;7.50;2.70;;;;;;;19.54;54.45;102729.13;4981274;28;124804;-64
2021/09/01 04:15:05;;;;;;;10.60;2.85;;;;;;;19.54;54.31;102723.75;4976860;28;124109;-64
2021/09/01 04:17:33;;;;;;;7.00;2.65;;;;;;;19.52;54.53;102731.03;4981738;28;108751;-63
2021/09/01 04:20:00;;;;;;;7.13;2.72;;;;;;;19.54;54.49;102721.06;4980232;28;109357;-66
2021/09/01 04:22:27;;;;;;;6.55;2.80;;;;;;;19.53;54.15;102732.75;4983449;28;124133;-64
2021/09/01 04:24:54;;;;;;;8.38;2.72;;;;;;;19.51;54.28;102734.66;4976622;28;124035;-63
2021/09/01 04:27:21;;;;;;;8.20;2.78;;;;;;;19.50;54.17;102732.94;4984826;28;109081;-63
2021/09/01 04:29:48;;;;;;;9.02;2.80;;;;;;;19.48;53.86;102737.53;4981323;28;108728;-63
2021/09/01 04:32:15;;;;;;;10.25;2.70;;;;;;;19.48;53.76;102737.53;4979050;28;123859;-64
2021/09/01 04:34:43;;;;;;;9.30;3.38;;;;;;;19.46;53.75;102734.03;4974563;28;124208;-64
2021/09/01 04:37:10;;;;;;;8.00;2.50;;;;;;;19.45;53.49;102729.59;4971352;28;110050;-64
2021/09/01 04:39:37;;;;;;;6.70;2.53;;;;;;;19.41;53.48;102728.03;4982028;28;109830;-65
2021/09/01 04:42:05;;;;;;;6.85;2.42;;;;;;;19.40;53.65;102734.34;4976820;28;124132;-65
2021/09/01 04:44:32;;;;;;;7.28;2.28;;;;;;;19.38;53.47;102728.19;4980069;28;124072;-65
2021/09/01 04:46:59;;;;;;;7.55;3.22;;;;;;;19.36;53.68;102724.72;4972939;28;108082;-65
2021/09/01 04:49:26;;;;;;;6.60;3.00;;;;;;;19.36;53.65;102730.09;4975491;28;108772;-65
2021/09/01 04:51:54;;;;;;;7.05;2.53;;;;;;;19.36;53.71;102730.09;4983795;28;123846;-65
2021/09/01 04:54:21;;;;;;;10.40;3.03;;;;;;;19.38;53.48;102738.94;4974714;28;124178;-65
2021/09/01 04:56:48;;;;;;;9.02;3.10;;;;;;;19.39;53.64;102740.69;4979799;28;110004;-65
2021/09/01 04:59:15;;;;;;;7.47;3.15;;;;;;;19.39;53.49;102735.31;4976981;28;108993;-65
2021/09/01 05:01:42;;;;;;;7.30;2.95;;;;;;;19.38;53.51;102739.81;4975811;28;124085;-65
2021/09/01 05:04:10;;;;;;;6.85;2.70;;;;;;;19.38;53.45;102738.94;4983446;28;124229;-65
2021/09/01 05:06:37;;;;;;;9.73;2.50;;;;;;;19.37;53.33;102742.59;4979276;28;109636;-65
2021/09/01 05:09:04;;;;;;;8.80;2.47;;;;;;;19.34;53.35;102738.22;4974187;28;109149;-65
2021/09/01 05:11:31;;;;;;;5.63;2.20;;;;;;;19.34;53.35;102748.09;4975819;28;124164;-65
2021/09/01 05:13:58;;;;;;;10.40;2.88;;;;;;;19.34;53.36;102742.72;4977995;28;123515;-65
2021/09/01 05:16:25;;;;;;;7.13;2.90;;;;;;;19.33;53.56;102741.00;4988021;28;109012;-65
2021/09/01 05:18:52;;;;;;;7.32;2.90;;;;;;;19.32;53.57;102744.63;4984463;28;108962;-65
2021/09/01 05:21:25;;;;;;;7.78;3.10;;;;;;;19.32;53.61;102750.00;4976366;28;124057;-65
2021/09/01 05:23:56;;;;;;;10.02;2.85;;;;;;;19.32;53.67;102750.00;4976041;28;123937;-65
2021/09/01 05:26:33;;;;;;;7.60;2.78;;;;;;;19.33;53.58;102751.75;4959137;28;109010;-65
2021/09/01 05:29:03;;;;;;;10.57;3.13;;;;;;;19.35;53.74;102749.88;4985962;28;108917;-65
2021/09/01 05:31:31;;;;;;;9.18;2.70;;;;;;;19.36;53.65;102754.28;4976189;28;124038;-65
2021/09/01 05:34:02;;;;;;;7.20;2.50;;;;;;;19.37;53.74;102753.34;4986247;28;122582;-65
2021/09/01 05:36:31;;;;;;;11.73;3.13;;;;;;;19.38;53.59;102763.13;4975659;28;109665;-65
2021/09/01 05:39:00;;;;;;;11.70;2.97;;;;;;;19.37;53.74;102753.34;4975338;28;108587;-64
2021/09/01 05:41:29;;;;;;;8.23;2.80;;;;;;;19.38;53.59;102765.81;4978824;28;124178;-65
2021/09/01 05:43:59;;;;;;;7.30;2.80;;;;;;;19.39;53.80;102762.19;4983163;28;124693;-66
2021/09/01 05:46:26;;;;;;;9.68;2.72;;;;;;;19.39;53.80;102767.56;4978440;28;110049;-66
2021/09/01 05:48:53;;;;;;;7.65;2.90;;;;;;;19.40;53.71;102758.53;4977888;28;108261;-65
2021/09/01 05:51:22;;;;;;;10.85;3.28;;;;;;;19.40;53.85;102755.84;4973680;28;124293;-65
2021/09/01 05:53:49;;;;;;;7.82;2.60;;;;;;;19.40;53.67;102755.84;4974889;28;123939;-64
2021/09/01 05:56:28;;;;;;;8.65;2.83;;;;;;;19.40;53.65;102753.16;4974435;28;109351;-65
2021/09/01 05:59:00;;;;;;;12.68;2.97;;;;;;;19.41;53.31;102749.53;4974740;28;109378;-65
2021/09/01 06:01:31;;;;;;;6.43;2.10;;;;;;;19.41;53.49;102754.91;4979837;28;124416;-65
2021/09/01 06:04:01;;;;;;;7.93;2.72;;;;;;;19.42;53.50;102756.63;4980212;28;123990;-65
2021/09/01 06:06:28;;;;;;;7.70;2.63;;;;;;;19.43;53.33;102758.38;4994589;28;107905;-66
2021/09/01 06:09:00;;;;;;;8.65;2.80;;;;;;;19.43;53.61;102755.69;4996970;28;109550;-66
2021/09/01 06:11:29;;;;;;;7.18;2.83;;;;;;;19.45;53.65;102757.34;4982915;28;124098;-65
2021/09/01 06:13:56;;;;;;;9.35;2.90;;;;;;;19.49;53.45;102768.81;4988066;28;124766;-66
2021/09/01 06:16:23;;;;;;;7.22;2.95;;;;;;;19.50;53.45;102765.19;4989607;28;110132;-65
2021/09/01 06:18:51;;;;;;;7.80;3.00;;;;;;;19.51;53.44;102766.91;4988093;28;109745;-65
2021/09/01 06:21:18;;;;;;;5.97;2.60;;;;;;;19.52;53.37;102752.53;4992855;28;124190;-66
2021/09/01 06:23:46;;;;;;;7.57;2.70;;;;;;;19.56;53.40;102764.84;4991140;28;124002;-66
2021/09/01 06:26:13;;;;;;;9.70;3.08;;;;;;;19.60;53.51;102766.44;4993170;28;109796;-65
2021/09/01 06:28:44;;;;;;;7.93;2.72;;;;;;;19.62;53.36;102759.16;4980965;28;108733;-65
2021/09/01 06:31:11;;;;;;;6.88;2.88;;;;;;;19.64;53.04;102773.38;4982850;28;124848;-65
2021/09/01 06:33:38;;;;;;;6.32;2.45;;;;;;;19.65;53.27;102772.44;4982428;28;124654;-65
2021/09/01 06:36:06;;;;;;;5.82;2.17;;;;;;;19.69;53.10;102774.97;4981667;28;108558;-65
2021/09/01 06:38:33;;;;;;;10.32;2.65;;;;;;;19.70;53.11;102772.19;4981551;28;109019;-65
2021/09/01 06:41:00;;;;;;;8.65;2.78;;;;;;;19.72;53.00;102774.78;4982069;28;123872;-66
2021/09/01 06:43:27;;;;;;;5.95;2.60;;;;;;;19.76;52.95;102771.00;4979501;28;122915;-66
2021/09/01 06:45:55;;;;;;;8.23;2.50;;;;;;;19.79;53.36;102770.88;4976941;28;109198;-66
2021/09/01 06:48:22;;;;;;;7.55;2.95;;;;;;;19.81;53.25;102782.41;4975014;28;107806;-66
2021/09/01 06:50:49;;;;;;;7.75;3.10;;;;;;;19.84;53.41;102774.19;4979457;28;125167;-64
2021/09/01 06:53:16;;;;;;;9.82;2.95;;;;;;;19.86;53.45;102777.66;4990024;28;124127;-64
2021/09/01 06:55:43;;;;;;;9.30;2.85;;;;;;;19.89;53.19;102769.44;4977875;28;109264;-64
2021/09/01 06:58:19;;;;;;;10.35;2.90;;;;;;;19.93;53.28;102773.69;4975364;28;108072;-64
2021/09/01 07:00:46;;;;;;;6.22;2.50;;;;;;;19.97;53.37;102780.66;4977988;28;123873;-64
2021/09/01 07:03:14;;;;;;;9.07;2.78;;;;;;;20.00;53.22;102775.09;4978065;28;123925;-64
2021/09/01 07:05:41;;;;;;;6.03;2.65;;;;;;;20.01;52.87;102776.84;4977046;28;110251;-64
2021/09/01 07:08:14;;;;;;;9.77;2.80;;;;;;;20.01;52.87;102782.22;4975446;28;110123;-64
2021/09/01 07:10:42;;;;;;;9.35;2.70;;;;;;;20.02;52.99;102778.59;4996026;28;124139;-64
2021/09/01 07:13:10;;;;;;;7.85;2.30;;;;;;;20.03;52.83;102791.06;4997117;28;123998;-63
2021/09/01 07:15:37;;;;;;;9.93;2.58;;;;;;;20.05;52.86;102782.91;4992934;28;108990;-63
2021/09/01 07:18:04;;;;;;;6.90;2.65;;;;;;;20.05;52.93;102785.59;4992916;28;108882;-63
2021/09/01 07:20:31;;;;;;;8.20;3.00;;;;;;;20.09;52.96;102778.25;4988659;28;124688;-64
2021/09/01 07:22:59;;;;;;;10.55;3.10;;;;;;;20.11;52.88;102781.72;4993449;28;123672;-64
2021/09/01 07:25:27;;;;;;;10.00;3.42;;;;;;;20.14;53.00;102786.94;4998294;28;107851;-64
2021/09/01 07:27:54;;;;;;;6.82;3.25;;;;;;;20.18;53.04;102788.50;4997467;28;109387;-63
2021/09/01 07:30:21;;;;;;;11.05;3.90;;;;;;;20.22;53.11;102784.69;4994895;28;123951;-64
2021/09/01 07:32:49;;;;;;;9.45;3.65;;;;;;;20.26;52.94;102786.25;4985083;28;123784;-65
2021/09/01 07:35:16;;;;;;;10.35;3.30;;;;;;;20.29;52.89;102791.47;4981605;28;108987;-65
2021/09/01 07:37:45;;;;;;;8.32;3.40;;;;;;;20.33;52.81;102793.03;4995283;28;107876;-65
2021/09/01 07:40:14;;;;;;;9.35;3.10;;;;;;;20.35;52.52;102796.50;5003629;28;124543;-65
2021/09/01 07:42:43;;;;;;;8.50;3.22;;;;;;;20.37;52.57;102794.59;5004927;28;123965;-65
2021/09/01 07:45:13;;;;;;;8.82;3.08;;;;;;;20.37;52.39;102797.28;4996206;28;109134;-65
2021/09/01 07:47:54;;;;;;;7.45;2.65;;;;;;;20.40;52.51;102812.41;5006452;28;107872;-65
2021/09/01 07:50:27;;;;;;;9.00;2.92;;;;;;;20.41;52.33;102812.31;4993408;28;124909;-65
2021/09/01 07:52:55;;;;;;;8.13;2.35;;;;;;;20.44;52.37;102819.38;4998087;28;123804;-65
2021/09/01 07:55:23;;;;;;;6.80;2.47;;;;;;;20.49;52.47;102819.94;4991537;28;109551;-65
2021/09/01 07:57:50;;;;;;;8.02;2.60;;;;;;;20.54;52.47;102817.03;5036738;22;109685;-67
2021/09/01 08:00:18;;;;;;;5.68;2.65;;;;;;;20.60;52.18;102816.72;5027396;27;124578;-67
2021/09/01 08:02:45;;;;;;;9.55;2.90;;;;;;;20.63;52.17;102827.31;5020072;27;123819;-65
2021/09/01 08:05:12;;;;;;;7.63;3.08;;;;;;;20.67;52.21;102823.50;5027672;28;109263;-65
2021/09/01 08:07:40;;;;;;;8.52;2.47;;;;;;;20.72;52.15;102824.09;5028688;28;108283;-65
2021/09/01 08:10:07;;;;;;;8.68;3.00;;;;;;;20.78;52.02;102825.59;5025450;28;124184;-65
2021/09/01 08:12:35;;;;;;;8.93;2.80;;;;;;;20.84;51.91;102829.75;5031969;28;124325;-65
2021/09/01 08:15:02;;;;;;;6.22;2.80;;;;;;;20.88;51.72;102834.00;5024686;28;109597;-65
2021/09/01 08:17:31;;;;;;;7.80;2.85;;;;;;;20.91;51.73;102839.22;5033261;28;109207;-65
2021/09/01 08:19:59;;;;;;;8.63;2.50;;;;;;;20.95;51.67;102838.94;5033657;28;123537;-65
2021/09/01 08:22:26;;;;;;;7.72;2.70;;;;;;;20.98;51.60;102844.19;5031163;28;123624;-65
2021/09/01 08:24:53;;;;;;;8.52;2.78;;;;;;;21.02;51.59;102844.88;5028984;27;109840;-65
2021/09/01 08:27:26;;;;;;;4.53;2.35;;;;;;;21.08;51.30;102839.13;5031959;28;109756;-66
2021/09/01 08:29:53;;;;;;;5.63;2.60;;;;;;;21.12;51.35;102846.06;5020123;28;123968;-66
2021/09/01 08:32:20;;;;;;;9.70;2.47;;;;;;;21.17;51.21;102849.38;5014010;28;124063;-66
2021/09/01 08:34:47;;;;;;;6.25;2.40;;;;;;;21.19;51.02;102847.44;5032556;28;110033;-66
2021/09/01 08:37:15;;;;;;;9.13;2.60;;;;;;;21.20;51.10;102854.56;5019236;28;109147;-66
2021/09/01 08:39:42;;;;;;;9.68;2.72;;;;;;;21.24;51.01;102846.31;5034718;28;124163;-66
2021/09/01 08:42:10;;;;;;;7.38;2.22;;;;;;;21.29;50.84;102857.69;5032223;28;124369;-67
2021/09/01 08:44:38;;;;;;;11.00;2.55;;;;;;;21.31;50.90;102853.09;5018924;28;111010;-66
2021/09/01 08:47:06;;;;;;;7.63;2.60;;;;;;;21.34;51.08;102850.19;5032887;28;110123;-66
2021/09/01 08:49:33;;;;;;;8.98;2.50;;;;;;;21.38;51.09;102846.38;5033168;28;124689;-66
2021/09/01 08:52:00;;;;;;;8.25;2.72;;;;;;;21.44;50.92;102851.44;5016796;28;124304;-66
2021/09/01 08:54:27;;;;;;;6.90;2.20;;;;;;;21.48;50.72;102858.38;5032438;28;110108;-66
2021/09/01 08:56:54;;;;;;;6.00;2.30;;;;;;;21.51;50.44;102850.13;5014206;28;108301;-67
2021/09/01 08:59:22;;;;;;;8.65;2.47;;;;;;;21.52;50.35;102854.53;5027760;28;124746;-67
2021/09/01 09:01:53;;;;;;;6.65;2.65;;;;;;;21.54;50.45;102851.75;5014351;28;124298;-66
2021/09/01 09:04:29;;;;;;;8.68;2.35;;;;;;;21.55;50.13;102848.09;5034591;28;109553;-66
2021/09/01 09:06:59;;;;;;;11.23;2.40;;;;;;;21.55;49.97;102842.72;5034758;28;109167;-66
2021/09/01 09:09:32;;;;;;;6.20;2.20;;;;;;;21.55;50.12;102843.56;5030389;28;124463;-66
2021/09/01 09:12:00;;;;;;;8.88;2.67;;;;;;;21.58;50.09;102846.06;5031601;28;122677;-67
2021/09/01 09:14:51;;;;;;;6.78;2.30;;;;;;;21.60;49.92;102845.13;5028385;28;109271;-67
2021/09/01 09:17:20;;;;;;;9.93;2.70;;;;;;;21.63;49.75;102844.94;5023604;28;108687;-67
2021/09/01 09:19:52;;;;;;;5.28;2.40;;;;;;;21.62;49.93;102843.19;5030887;28;123626;-67
2021/09/01 09:22:22;;;;;;;8.65;2.33;;;;;;;21.66;49.95;102847.44;5028131;28;123995;-66
2021/09/01 09:25:25;;;;;;;7.45;2.15;;;;;;;21.67;49.72;102835.69;5029048;28;109484;-66
2021/09/01 09:28:05;;;;;;;6.18;1.98;;;;;;;21.70;49.69;102843.59;5011462;28;108969;-66
2021/09/01 09:30:40;;;;;;;9.15;2.33;;;;;;;21.74;49.66;102837.06;5026468;28;123968;-65
2021/09/01 09:33:19;;;;;;;4.95;2.15;;;;;;;21.80;49.68;102836.69;5018332;22;124292;-73
2021/09/01 09:35:58;;;;;;;7.30;2.40;;;;;;;21.85;49.36;102839.97;5026187;28;110091;-74
2021/09/01 09:38:39;;;;;;;5.85;2.40;;;;;;;21.90;49.53;102843.25;4987778;28;108783;-75
2021/09/01 09:41:18;;;;;;;9.23;2.22;;;;;;;21.95;49.26;102841.13;5007541;28;123745;-74
2021/09/01 09:43:45;;;;;;;6.75;2.50;;;;;;;22.00;48.99;102837.28;4994857;28;123819;-75
2021/09/01 09:46:12;;;;;;;8.38;2.05;;;;;;;22.02;48.84;102841.66;4995317;28;108824;-75
2021/09/01 09:48:44;;;;;;;4.05;1.77;;;;;;;22.06;48.71;102847.72;4994243;28;108380;-75
2021/09/01 09:51:37;;;;;;;6.50;2.05;;;;;;;22.10;48.83;102843.88;4995693;28;125699;-73
2021/09/01 09:54:22;;;;;;;6.03;2.00;;;;;;;22.18;48.94;102846.94;4994951;28;123054;-74
2021/09/01 09:56:52;;;;;;;6.82;2.10;;;;;;;22.26;48.28;102850.06;4992673;28;109009;-74
2021/09/01 09:59:21;;;;;;;6.65;2.08;;;;;;;22.33;48.13;102843.31;4985303;28;107605;-74
2021/09/01 10:01:49;;;;;;;5.40;2.30;;;;;;;22.42;47.97;102843.72;4994576;28;124972;-74
2021/09/01 10:04:17;;;;;;;7.80;2.22;;;;;;;22.51;48.24;102843.13;4993844;28;123383;-75
2021/09/01 10:06:44;;;;;;;5.57;2.10;;;;;;;22.63;48.27;102847.72;4989763;28;109030;-74
2021/09/01 10:09:11;;;;;;;4.53;2.10;;;;;;;22.75;48.21;102846.06;4974277;28;107113;-74
2021/09/01 10:11:40;;;;;;;6.22;2.00;;;;;;;22.84;47.92;102837.34;4987699;28;124026;-76
2021/09/01 10:14:08;;;;;;;5.93;1.90;;;;;;;22.89;47.48;102837.06;4983932;28;124651;-74
2021/09/01 10:16:40;;;;;;;8.13;2.20;;;;;;;22.89;46.99;102837.06;4986565;28;109095;-74
2021/09/01 10:19:17;;;;;;;6.32;2.10;;;;;;;22.84;47.04;102834.66;4987645;28;108726;-74
2021/09/01 10:21:51;;;;;;;5.63;2.45;;;;;;;22.84;47.09;102828.38;5003767;28;124067;-75
2021/09/01 10:24:19;;;;;;;5.43;2.00;;;;;;;22.85;47.00;102830.09;5002726;28;123585;-75
2021/09/01 10:27:23;;;;;;;7.90;1.95;;;;;;;22.86;46.88;102823.75;5000325;28;110030;-75
2021/09/01 10:30:05;;;;;;;5.78;2.20;;;;;;;22.89;47.03;102827.13;4989013;28;109261;-76
2021/09/01 10:32:43;;;;;;;5.50;2.25;;;;;;;22.92;47.35;102828.72;4999668;28;123677;-76
2021/09/01 10:35:15;;;;;;;6.03;2.10;;;;;;;22.95;47.11;102825.84;5001994;28;124117;-74
2021/09/01 10:37:49;;;;;;;7.30;2.05;;;;;;;22.96;47.29;102822.16;4999555;28;109250;-76
2021/09/01 10:40:22;;;;;;;4.90;2.10;;;;;;;22.99;47.25;102827.38;5005383;28;109346;-76
2021/09/01 10:42:50;;;;;;;6.68;2.20;;;;;;;23.06;47.01;102817.91;4996758;28;123555;-75
2021/09/01 10:45:24;;;;;;;7.00;2.10;;;;;;;23.13;46.96;102819.25;4983909;28;123333;-75
2021/09/01 10:47:51;;;;;;;8.23;2.40;;;;;;;23.20;47.01;102816.13;5005631;28;109016;-75
2021/09/01 10:50:29;;;;;;;6.47;1.98;;;;;;;23.25;46.95;102811.28;5002567;28;108858;-75
2021/09/01 10:53:20;;;;;;;6.80;2.40;;;;;;;23.27;46.65;102820.16;4998732;28;123919;-75
2021/09/01 10:55:51;;;;;;;6.75;2.00;;;;;;;23.30;46.46;102814.50;4989682;28;123741;-75
2021/09/01 10:58:32;;;;;;;4.80;2.13;;;;;;;23.28;46.50;102811.94;4993351;28;108434;-75
2021/09/01 11:01:05;;;;;;;6.45;2.28;;;;;;;23.33;46.73;102815.19;4999746;28;109062;-75
2021/09/01 11:03:34;;;;;;;5.43;1.83;;;;;;;23.38;46.20;102806.78;4976557;28;123958;-75
2021/09/01 11:06:21;;;;;;;6.03;2.17;;;;;;;23.41;45.98;102806.53;5002157;28;124035;-75
2021/09/01 11:09:11;;;;;;;5.50;1.92;;;;;;;23.40;46.11;102804.81;4970095;28;108438;-74
2021/09/01 11:11:50;;;;;;;7.13;1.90;;;;;;;23.40;46.14;102804.81;4996756;28;107638;-74
2021/09/01 11:14:30;;;;;;;5.78;1.98;;;;;;;23.43;46.04;102804.63;5002028;28;123821;-75
2021/09/01 11:16:58;;;;;;;5.07;2.20;;;;;;;23.44;45.80;102800.06;4999965;28;123748;-74
2021/09/01 11:19:27;;;;;;;5.63;1.90;;;;;;;23.45;45.67;102804.50;5003123;28;110084;-75
2021/09/01 11:22:00;;;;;;;5.35;2.08;;;;;;;23.47;45.80;102811.56;5003484;28;109033;-75
2021/09/01 11:24:27;;;;;;;6.65;2.03;;;;;;;23.47;45.65;102811.56;5001276;28;124459;-74
2021/09/01 11:26:57;;;;;;;4.55;2.10;;;;;;;23.47;45.32;102806.13;5000677;28;123701;-74